createdAt,value
2022-10-28T00:00:44.455Z,7.30
2022-10-28T00:05:04.132Z,7.29
2022-10-28T00:09:08.342Z,7.26
2022-10-28T00:13:13.357Z,7.26
2022-10-28T00:17:15.047Z,7.30
2022-10-28T00:21:18.132Z,7.35
2022-10-28T00:25:24.347Z,7.35
2022-10-28T00:29:25.998Z,7.30
2022-10-28T00:33:27.674Z,7.28
2022-10-28T00:37:29.456Z,7.26
2022-10-28T00:41:32.982Z,7.26
2022-10-28T00:45:34.700Z,7.32
2022-10-28T00:49:36.368Z,7.36
2022-10-28T00:53:39.539Z,7.38
2022-10-28T00:57:41.992Z,7.37
2022-10-28T01:01:44.256Z,7.33
2022-10-28T01:05:47.273Z,7.34
2022-10-28T01:09:49.862Z,7.40
2022-10-28T01:14:10.162Z,7.46
2022-10-28T01:18:22.195Z,7.45
2022-10-28T01:26:53.089Z,7.48
2022-10-28T01:31:13.638Z,7.49
2022-10-28T01:35:25.389Z,7.45
2022-10-28T01:39:27.059Z,7.50
2022-10-28T01:43:32.940Z,7.50
2022-10-28T01:47:38.354Z,7.53
2022-10-28T01:51:48.744Z,7.58
2022-10-28T01:55:52.566Z,7.65
2022-10-28T01:59:54.429Z,7.69
2022-10-28T02:03:56.578Z,7.70
2022-10-28T02:08:01.255Z,7.72
2022-10-28T02:12:05.732Z,7.71
2022-10-28T02:16:31.581Z,7.69
2022-10-28T02:20:33.287Z,7.58
2022-10-28T02:24:57.895Z,7.54
2022-10-28T02:29:19.407Z,7.53
2022-10-28T02:33:23.363Z,7.54
2022-10-28T02:37:29.553Z,7.53
2022-10-28T02:41:34.862Z,7.54
2022-10-28T02:45:44.525Z,7.56
2022-10-28T02:49:49.663Z,7.58
2022-10-28T02:53:51.387Z,7.57
2022-10-28T02:57:53.507Z,7.51
2022-10-28T03:01:55.747Z,7.47
2022-10-28T03:05:57.545Z,7.44
2022-10-28T03:09:59.219Z,7.46
2022-10-28T03:14:00.924Z,7.51
2022-10-28T03:18:02.702Z,7.54
2022-10-28T03:22:04.376Z,7.52
2022-10-28T03:26:06.052Z,7.49
2022-10-28T03:30:08.287Z,7.48
2022-10-28T03:34:10.033Z,7.46
2022-10-28T03:38:11.738Z,7.43
2022-10-28T03:42:13.438Z,7.38
2022-10-28T03:46:15.091Z,7.36
2022-10-28T03:50:17.232Z,7.33
2022-10-28T03:54:18.936Z,7.29
2022-10-28T03:58:21.281Z,7.29
2022-10-28T04:02:23.185Z,7.28
2022-10-28T04:06:25.059Z,7.21
2022-10-28T04:10:26.745Z,7.15
2022-10-28T04:14:28.423Z,7.10
2022-10-28T04:18:30.139Z,7.02
2022-10-28T04:22:32.016Z,6.96
2022-10-28T04:26:33.768Z,6.95
2022-10-28T04:30:35.541Z,6.92
2022-10-28T04:34:37.381Z,6.87
2022-10-28T04:38:39.132Z,6.76
2022-10-28T04:42:40.823Z,6.65
2022-10-28T04:46:42.553Z,6.65
2022-10-28T04:50:45.395Z,6.72
2022-10-28T04:54:47.098Z,6.78
2022-10-28T04:58:48.793Z,6.84
2022-10-28T05:02:51.099Z,6.94
2022-10-28T05:06:52.775Z,7.00
2022-10-28T05:10:54.503Z,6.98
2022-10-28T05:14:56.236Z,6.95
2022-10-28T05:18:58.158Z,6.93
2022-10-28T05:23:00.033Z,6.93
2022-10-28T05:27:01.743Z,6.99
2022-10-28T05:31:03.506Z,6.98
2022-10-28T05:35:06.252Z,6.96
2022-10-28T05:39:08.631Z,6.97
2022-10-28T05:43:10.395Z,7.01
2022-10-28T05:47:12.221Z,7.07
2022-10-28T05:51:14.087Z,7.08
2022-10-28T05:55:19.014Z,7.09
2022-10-28T05:59:20.843Z,7.08
2022-10-28T06:03:24.994Z,7.04
2022-10-28T06:07:30.569Z,7.12
2022-10-28T06:11:30.860Z,7.22
2022-10-28T06:15:32.542Z,7.22
2022-10-28T06:19:34.204Z,7.20
2022-10-28T06:23:35.872Z,7.19
2022-10-28T06:27:37.625Z,7.24
2022-10-28T06:31:40.062Z,7.28
2022-10-28T06:35:41.947Z,7.35
2022-10-28T06:39:43.836Z,7.51
2022-10-28T06:43:45.953Z,7.64
2022-10-28T06:47:49.285Z,7.68
2022-10-28T06:51:50.997Z,7.83
2022-10-28T06:55:53.464Z,8.01
2022-10-28T06:59:55.382Z,8.24
2022-10-28T07:03:57.517Z,8.43
2022-10-28T07:07:59.264Z,8.59
2022-10-28T07:12:04.933Z,8.76
2022-10-28T07:16:07.369Z,8.93
2022-10-28T07:20:09.486Z,9.08
2022-10-28T07:24:11.210Z,9.25
2022-10-28T07:28:12.943Z,9.41
2022-10-28T07:32:15.233Z,9.64
2022-10-28T07:36:17.000Z,9.96
2022-10-28T07:40:20.315Z,10.33
2022-10-28T07:44:22.089Z,10.73
2022-10-28T07:48:23.955Z,11.15
2022-10-28T07:52:25.752Z,11.55
2022-10-28T07:56:27.631Z,11.85
2022-10-28T08:00:29.391Z,12.12
2022-10-28T08:04:31.520Z,12.34
2022-10-28T08:08:33.481Z,12.53
2022-10-28T08:12:35.186Z,12.71
2022-10-28T08:16:36.873Z,12.84
2022-10-28T08:20:38.546Z,12.98
2022-10-28T08:24:40.245Z,13.06
2022-10-28T08:28:42.493Z,13.15
2022-10-28T08:32:44.450Z,13.20
2022-10-28T08:36:46.315Z,13.23
2022-10-28T08:40:50.950Z,13.40
2022-10-28T08:45:16.172Z,13.49
2022-10-28T08:49:20.548Z,13.62
2022-10-28T08:53:32.308Z,13.84
2022-10-28T08:57:37.474Z,14.05
2022-10-28T09:01:46.973Z,14.22
2022-10-28T09:05:53.658Z,14.39
2022-10-28T09:10:14.495Z,14.58
2022-10-28T09:14:26.316Z,14.81
2022-10-28T09:18:47.026Z,14.96
2022-10-28T09:22:55.121Z,15.04
2022-10-28T09:27:15.456Z,15.14
2022-10-28T09:31:44.246Z,15.15
2022-10-28T09:35:46.949Z,15.16
2022-10-28T09:39:50.969Z,15.20
2022-10-28T09:44:06.511Z,15.28
2022-10-28T09:48:28.953Z,15.36
2022-10-28T09:52:35.530Z,15.35
2022-10-28T09:56:56.194Z,15.35
2022-10-28T10:00:58.471Z,15.37
2022-10-28T10:05:01.590Z,15.49
2022-10-28T10:09:03.560Z,15.57
2022-10-28T10:13:06.533Z,15.55
2022-10-28T10:17:30.376Z,15.53
2022-10-28T10:21:51.833Z,15.63
2022-10-28T10:26:01.411Z,15.87
2022-10-28T10:30:03.515Z,16.17
2022-10-28T10:34:05.530Z,16.36
2022-10-28T10:38:07.410Z,16.44
2022-10-28T10:42:16.289Z,16.47
2022-10-28T10:46:18.135Z,16.45
2022-10-28T10:50:20.611Z,16.36
2022-10-28T10:54:23.272Z,16.36
2022-10-28T10:58:27.415Z,16.45
2022-10-28T11:02:29.204Z,16.54
2022-10-28T11:06:53.857Z,16.64
2022-10-28T11:11:12.907Z,16.72
2022-10-28T11:15:17.509Z,16.80
2022-10-28T11:19:24.137Z,16.85
2022-10-28T11:23:31.905Z,16.92
2022-10-28T11:27:55.458Z,17.03
2022-10-28T11:32:10.458Z,17.14
2022-10-28T11:36:17.953Z,17.24
2022-10-28T11:40:19.687Z,17.30
2022-10-28T11:44:30.547Z,17.35
2022-10-28T11:49:09.519Z,17.40
2022-10-28T11:53:23.893Z,17.48
2022-10-28T11:57:31.907Z,17.56
2022-10-28T12:01:42.626Z,17.63
2022-10-28T12:05:49.374Z,17.68
2022-10-28T12:10:10.866Z,17.72
2022-10-28T12:14:22.335Z,17.73
2022-10-28T12:18:24.346Z,17.71
2022-10-28T12:22:48.023Z,17.73
2022-10-28T12:26:57.386Z,17.79
2022-10-28T12:31:41.903Z,17.86
2022-10-28T12:35:48.260Z,17.88
2022-10-28T12:39:58.938Z,17.87
2022-10-28T12:44:00.684Z,17.88
2022-10-28T12:48:21.012Z,17.93
2022-10-28T12:52:25.529Z,18.01
2022-10-28T12:56:52.340Z,18.04
2022-10-28T13:00:57.040Z,18.02
2022-10-28T13:05:27.200Z,18.01
2022-10-28T13:10:05.283Z,18.00
2022-10-28T13:14:07.110Z,17.98
2022-10-28T13:18:38.129Z,17.96
2022-10-28T13:23:13.643Z,17.92
2022-10-28T13:27:15.773Z,17.89
2022-10-28T13:31:18.191Z,17.84
2022-10-28T13:35:24.826Z,17.82
2022-10-28T13:39:31.146Z,17.80
2022-10-28T13:43:48.400Z,17.79
2022-10-28T13:47:50.179Z,17.76
2022-10-28T13:54:24.881Z,17.72
2022-10-28T13:58:28.355Z,17.64
2022-10-28T14:02:46.693Z,17.61
2022-10-28T14:06:50.583Z,17.56
2022-10-28T14:11:13.950Z,17.47
2022-10-28T14:15:26.925Z,17.37
2022-10-28T14:19:30.387Z,17.26
2022-10-28T14:24:10.914Z,17.16
2022-10-28T14:28:34.517Z,17.08
2022-10-28T14:32:43.782Z,16.98
2022-10-28T14:37:32.107Z,16.84
2022-10-28T14:41:44.569Z,16.72
2022-10-28T14:46:00.092Z,16.62
2022-10-28T14:50:23.750Z,16.53
2022-10-28T14:54:44.076Z,16.45
2022-10-28T14:58:47.508Z,16.37
2022-10-28T15:02:51.079Z,16.21
2022-10-28T15:06:54.618Z,16.09
2022-10-28T15:11:19.075Z,16.05
2022-10-28T15:15:25.048Z,16.04
2022-10-28T15:19:52.611Z,16.00
2022-10-28T15:24:01.056Z,15.90
2022-10-28T15:28:04.339Z,15.78
2022-10-28T15:32:16.497Z,15.68
2022-10-28T15:36:24.037Z,15.56
2022-10-28T15:40:28.278Z,15.47
2022-10-28T15:44:36.012Z,15.34
2022-10-28T15:48:59.023Z,15.24
2022-10-28T15:53:34.413Z,15.15
2022-10-28T15:57:52.842Z,15.09
2022-10-28T16:01:59.600Z,15.06
2022-10-28T16:06:04.325Z,15.04
2022-10-28T16:10:15.710Z,14.98
2022-10-28T16:14:35.027Z,14.83
2022-10-28T16:19:06.456Z,14.72
2022-10-28T16:23:22.024Z,14.67
2022-10-28T16:27:28.551Z,14.64
2022-10-28T16:31:32.257Z,14.67
2022-10-28T16:35:53.133Z,14.73
2022-10-28T16:39:58.050Z,14.71
2022-10-28T16:44:01.660Z,14.67
2022-10-28T16:48:09.542Z,14.64
2022-10-28T16:52:20.547Z,14.58
2022-10-28T16:56:24.304Z,14.54
2022-10-28T17:00:28.007Z,14.54
2022-10-28T17:04:31.804Z,14.52
2022-10-28T17:09:04.228Z,14.50
2022-10-28T17:12:58.750Z,14.43
2022-10-28T17:17:02.333Z,14.39
2022-10-28T17:21:06.054Z,14.35
2022-10-28T17:25:11.270Z,14.31
2022-10-28T17:29:32.322Z,14.31
2022-10-28T17:33:36.882Z,14.34
2022-10-28T17:37:40.939Z,14.34
2022-10-28T17:41:44.602Z,14.35
2022-10-28T17:45:47.895Z,14.39
2022-10-28T17:50:08.460Z,14.43
2022-10-28T17:54:11.975Z,14.45
2022-10-28T17:58:15.276Z,14.49
2022-10-28T18:02:36.153Z,14.51
2022-10-28T18:06:39.386Z,14.48
2022-10-28T18:10:53.776Z,14.45
2022-10-28T18:14:57.026Z,14.42
2022-10-28T18:19:17.916Z,14.40
2022-10-28T18:23:22.384Z,14.40
2022-10-28T18:27:25.622Z,14.43
2022-10-28T18:31:47.455Z,14.46
2022-10-28T18:35:50.723Z,14.46
2022-10-28T18:40:11.887Z,14.41
2022-10-28T18:44:32.580Z,14.32
2022-10-28T18:48:36.016Z,14.30
2022-10-28T18:52:39.245Z,14.30
2022-10-28T18:56:46.230Z,14.28
2022-10-28T19:01:14.918Z,14.18
2022-10-28T19:05:18.739Z,14.07
2022-10-28T19:09:22.076Z,13.92
2022-10-28T19:13:25.462Z,13.75
2022-10-28T19:17:28.682Z,13.56
2022-10-28T19:21:51.292Z,13.39
2022-10-28T19:25:56.290Z,13.22
2022-10-28T19:30:00.984Z,13.04
2022-10-28T19:34:04.421Z,12.95
2022-10-28T19:38:07.609Z,12.92
2022-10-28T19:42:28.336Z,12.93
2022-10-28T19:46:34.684Z,12.93
2022-10-28T19:50:37.853Z,12.95
2022-10-28T19:54:41.055Z,12.97
2022-10-28T19:58:49.523Z,12.98
2022-10-28T20:02:52.656Z,12.99
2022-10-28T20:06:58.470Z,13.02
2022-10-28T20:11:25.800Z,13.03
2022-10-28T20:15:30.211Z,13.00
2022-10-28T20:19:33.669Z,12.99
2022-10-28T20:23:37.536Z,13.00
2022-10-28T20:27:40.786Z,13.05
2022-10-28T20:31:44.003Z,13.14
2022-10-28T20:35:47.249Z,13.23
2022-10-28T20:39:53.685Z,13.33
2022-10-28T20:44:00.464Z,13.43
2022-10-28T20:48:03.951Z,13.51
2022-10-28T20:52:07.140Z,13.56
2022-10-28T20:56:30.610Z,13.57
2022-10-28T21:00:33.799Z,13.58
2022-10-28T21:04:37.671Z,13.56
2022-10-28T21:08:41.099Z,13.56
2022-10-28T21:12:44.294Z,13.50
2022-10-28T21:16:51.501Z,13.35
2022-10-28T21:20:59.171Z,13.19
2022-10-28T21:25:03.775Z,13.12
2022-10-28T21:29:07.054Z,13.08
2022-10-28T21:33:11.896Z,13.04
2022-10-28T21:37:33.905Z,12.97
2022-10-28T21:41:54.657Z,12.88
2022-10-28T21:45:58.337Z,12.85
2022-10-28T21:50:01.556Z,12.83
2022-10-28T21:54:05.165Z,12.76
2022-10-28T21:58:08.318Z,12.71
2022-10-28T22:02:29.213Z,12.67
2022-10-28T22:06:32.489Z,12.61
2022-10-28T22:10:35.819Z,12.60
2022-10-28T22:14:39.340Z,12.58
2022-10-28T22:19:01.823Z,12.54
2022-10-28T22:23:05.015Z,12.42
2022-10-28T22:27:08.208Z,12.21
2022-10-28T22:31:14.735Z,12.09
2022-10-28T22:35:17.902Z,12.03
2022-10-28T22:39:21.126Z,11.99
2022-10-28T22:43:24.325Z,12.01
2022-10-28T22:47:27.547Z,12.05
2022-10-28T22:51:30.934Z,12.08
2022-10-28T22:55:34.120Z,12.12
2022-10-28T22:59:54.776Z,12.11
2022-10-28T23:04:15.891Z,12.08
2022-10-28T23:08:19.126Z,12.05
2022-10-28T23:12:22.268Z,12.06
2022-10-28T23:16:42.968Z,12.09
2022-10-28T23:20:46.315Z,12.11
2022-10-28T23:24:49.499Z,12.13
2022-10-28T23:28:54.979Z,12.10
2022-10-28T23:33:15.810Z,12.09
2022-10-28T23:37:18.996Z,12.11
2022-10-28T23:41:39.542Z,12.10
2022-10-28T23:45:42.691Z,12.07
2022-10-28T23:49:45.948Z,11.99
2022-10-28T23:54:06.485Z,11.94
2022-10-28T23:58:09.696Z,11.91
